createdAt,value
2023-04-18T00:00:35.053Z,23.05
2023-04-18T00:03:04.101Z,25.33
2023-04-18T00:05:31.794Z,26.85
2023-04-18T00:07:58.702Z,26.30
2023-04-18T00:10:25.973Z,21.90
2023-04-18T00:12:53.088Z,24.70
2023-04-18T00:15:20.038Z,27.10
2023-04-18T00:17:48.432Z,22.88
2023-04-18T00:20:15.484Z,24.50
2023-04-18T00:22:46.792Z,21.60
2023-04-18T00:25:15.381Z,24.27
2023-04-18T00:27:42.318Z,22.77
2023-04-18T00:30:09.733Z,22.85
2023-04-18T00:32:38.092Z,23.33
2023-04-18T00:35:05.781Z,23.52
2023-04-18T00:37:32.863Z,25.40
2023-04-18T00:39:59.854Z,24.77
2023-04-18T00:42:29.027Z,23.17
2023-04-18T00:44:56.114Z,26.45
2023-04-18T00:47:23.177Z,24.05
2023-04-18T00:49:50.374Z,25.67
2023-04-18T00:52:18.937Z,23.80
2023-04-18T00:54:47.393Z,22.17
2023-04-18T00:57:15.140Z,23.88
2023-04-18T00:59:42.739Z,24.85
2023-04-18T01:02:09.776Z,28.08
2023-04-18T01:04:37.517Z,22.73
2023-04-18T01:07:05.502Z,25.58
2023-04-18T01:09:32.476Z,26.33
2023-04-18T01:11:59.464Z,24.92
2023-04-18T01:14:26.655Z,25.98
2023-04-18T01:16:53.777Z,23.50
2023-04-18T01:19:20.946Z,19.95
2023-04-18T01:21:48.128Z,24.45
2023-04-18T01:24:17.178Z,24.02
2023-04-18T01:26:45.985Z,20.58
2023-04-18T01:29:13.505Z,21.08
2023-04-18T01:31:41.472Z,24.52
2023-04-18T01:34:09.207Z,23.10
2023-04-18T01:36:37.653Z,23.10
2023-04-18T01:39:05.142Z,24.88
2023-04-18T01:41:32.992Z,22.15
2023-04-18T01:44:00.486Z,21.52
2023-04-18T01:46:28.765Z,22.30
2023-04-18T01:48:57.080Z,25.25
2023-04-18T01:51:24.255Z,25.15
2023-04-18T01:53:53.740Z,23.50
2023-04-18T01:56:21.129Z,23.40
2023-04-18T01:58:48.197Z,24.40
2023-04-18T02:01:15.355Z,23.67
2023-04-18T02:03:42.476Z,25.13
2023-04-18T02:06:10.275Z,23.52
2023-04-18T02:08:37.395Z,23.58
2023-04-18T02:11:07.453Z,24.05
2023-04-18T02:13:34.563Z,24.27
2023-04-18T02:16:11.505Z,24.08
2023-04-18T02:18:40.243Z,24.15
2023-04-18T02:21:07.400Z,25.27
2023-04-18T02:23:34.342Z,22.40
2023-04-18T02:26:01.469Z,24.08
2023-04-18T02:28:28.452Z,23.63
2023-04-18T02:30:56.074Z,25.63
2023-04-18T02:33:23.030Z,22.48
2023-04-18T02:35:52.398Z,21.75
2023-04-18T02:38:19.384Z,24.13
2023-04-18T02:40:46.369Z,22.02
2023-04-18T02:43:13.332Z,21.85
2023-04-18T02:45:40.349Z,24.55
2023-04-18T02:48:07.593Z,23.33
2023-04-18T02:50:35.646Z,24.23
2023-04-18T02:53:02.826Z,23.98
2023-04-18T02:55:41.650Z,28.80
2023-04-18T02:58:08.760Z,23.20
2023-04-18T03:00:53.616Z,24.65
2023-04-18T03:03:38.704Z,21.63
2023-04-18T03:06:22.882Z,21.88
2023-04-18T03:08:50.103Z,22.38
2023-04-18T03:11:17.159Z,24.83
2023-04-18T03:13:44.958Z,23.95
2023-04-18T03:16:12.634Z,25.08
2023-04-18T03:18:40.075Z,24.05
2023-04-18T03:21:07.320Z,22.40
2023-04-18T03:23:34.916Z,22.25
2023-04-18T03:26:06.561Z,22.90
2023-04-18T03:28:35.586Z,21.95
2023-04-18T03:31:02.809Z,24.90
2023-04-18T03:33:31.028Z,22.67
2023-04-18T03:36:06.955Z,23.60
2023-04-18T03:38:34.181Z,23.35
2023-04-18T03:41:01.150Z,20.90
2023-04-18T03:43:33.272Z,22.23
2023-04-18T03:46:00.581Z,25.50
2023-04-18T03:48:29.185Z,22.85
2023-04-18T03:50:59.998Z,22.58
2023-04-18T03:53:27.366Z,20.85
2023-04-18T03:55:56.840Z,22.38
2023-04-18T03:58:32.195Z,23.15
2023-04-18T04:01:01.170Z,20.35
2023-04-18T04:03:29.674Z,19.52
2023-04-18T04:05:57.061Z,22.83
2023-04-18T04:08:25.095Z,22.20
2023-04-18T04:10:53.413Z,20.95
2023-04-18T04:13:20.643Z,23.38
2023-04-18T04:15:48.966Z,22.00
2023-04-18T04:18:15.945Z,20.98
2023-04-18T04:20:46.118Z,20.35
2023-04-18T04:23:19.692Z,23.17
2023-04-18T04:25:48.243Z,23.02
2023-04-18T04:28:28.863Z,23.42
2023-04-18T04:31:00.871Z,21.45
2023-04-18T04:33:33.411Z,22.17
2023-04-18T04:36:04.781Z,21.08
2023-04-18T04:38:33.536Z,23.05
2023-04-18T04:41:00.579Z,20.55
2023-04-18T04:43:28.920Z,23.10
2023-04-18T04:45:57.819Z,20.77
2023-04-18T04:48:25.158Z,21.00
2023-04-18T04:50:59.039Z,20.80
2023-04-18T04:53:28.576Z,22.42
2023-04-18T04:55:55.826Z,22.80
2023-04-18T04:58:23.119Z,23.05
2023-04-18T05:01:25.814Z,23.23
2023-04-18T05:03:53.872Z,21.10
2023-04-18T05:06:22.638Z,22.50
2023-04-18T05:08:50.678Z,21.75
2023-04-18T05:11:18.223Z,23.58
2023-04-18T05:13:45.465Z,20.35
2023-04-18T05:16:12.460Z,26.88
2023-04-18T05:18:41.181Z,21.05
2023-04-18T05:21:08.141Z,21.83
2023-04-18T05:23:37.209Z,22.67
2023-04-18T05:26:05.691Z,24.27
2023-04-18T05:28:33.058Z,23.40
2023-04-18T05:31:02.898Z,23.92
2023-04-18T05:33:33.020Z,24.65
2023-04-18T05:36:00.224Z,25.17
2023-04-18T05:38:27.217Z,23.40
2023-04-18T05:40:56.019Z,24.13
2023-04-18T05:43:23.608Z,22.75
2023-04-18T05:45:52.623Z,23.30
2023-04-18T05:48:20.227Z,23.33
2023-04-18T05:50:47.578Z,23.38
2023-04-18T05:53:14.816Z,21.63
2023-04-18T05:55:42.131Z,23.73
2023-04-18T05:58:09.266Z,22.35
2023-04-18T06:00:36.400Z,20.98
2023-04-18T06:03:03.649Z,21.45
2023-04-18T06:05:31.360Z,22.67
2023-04-18T06:07:58.880Z,25.02
2023-04-18T06:10:25.987Z,26.00
2023-04-18T06:12:53.088Z,22.73
2023-04-18T06:15:20.183Z,24.05
2023-04-18T06:17:47.345Z,23.42
2023-04-18T06:20:14.527Z,22.27
2023-04-18T06:22:41.826Z,23.08
2023-04-18T06:25:10.176Z,26.52
2023-04-18T06:27:40.346Z,21.20
2023-04-18T06:30:08.432Z,23.73
2023-04-18T06:32:35.875Z,22.30
2023-04-18T06:35:02.991Z,22.63
2023-04-18T06:37:30.139Z,25.08
2023-04-18T06:39:57.308Z,22.35
2023-04-18T06:42:24.535Z,22.88
2023-04-18T06:44:51.655Z,23.15
2023-04-18T06:47:18.872Z,22.45
2023-04-18T06:49:45.975Z,22.05
2023-04-18T06:52:13.273Z,26.02
2023-04-18T06:54:40.433Z,23.05
2023-04-18T06:57:07.536Z,24.42
2023-04-18T06:59:35.775Z,21.85
2023-04-18T07:02:02.843Z,22.77
2023-04-18T07:04:30.011Z,21.25
2023-04-18T07:06:57.232Z,22.30
2023-04-18T07:09:24.343Z,23.30
2023-04-18T07:11:52.853Z,25.58
2023-04-18T07:14:24.588Z,23.25
2023-04-18T07:16:52.371Z,26.20
2023-04-18T07:19:19.504Z,24.33
2023-04-18T07:21:46.700Z,22.58
2023-04-18T07:24:14.109Z,22.65
2023-04-18T07:26:41.697Z,26.83
2023-04-18T07:29:08.851Z,23.25
2023-04-18T07:31:36.250Z,22.35
2023-04-18T07:34:03.477Z,22.25
2023-04-18T07:36:31.605Z,23.10
2023-04-18T07:38:58.698Z,21.25
2023-04-18T07:41:25.742Z,24.48
2023-04-18T07:43:52.836Z,22.60
2023-04-18T07:46:20.053Z,23.10
2023-04-18T07:48:47.130Z,22.10
2023-04-18T07:51:14.321Z,24.25
2023-04-18T07:53:41.463Z,20.42
2023-04-18T07:56:08.749Z,25.92
2023-04-18T07:58:36.376Z,20.38
2023-04-18T08:01:03.542Z,22.15
2023-04-18T08:03:30.765Z,20.23
2023-04-18T08:05:58.092Z,20.27
2023-04-18T08:08:25.032Z,22.10
2023-04-18T08:10:52.194Z,22.88
2023-04-18T08:13:19.334Z,24.65
2023-04-18T08:15:47.141Z,22.30
2023-04-18T08:18:14.251Z,25.17
2023-04-18T08:20:41.556Z,23.15
2023-04-18T08:23:11.319Z,23.00
2023-04-18T08:25:39.883Z,21.95
2023-04-18T08:28:07.136Z,25.45
2023-04-18T08:30:34.323Z,24.23
2023-04-18T08:33:02.016Z,21.92
2023-04-18T08:35:29.066Z,20.25
2023-04-18T08:37:56.016Z,20.40
2023-04-18T08:40:23.193Z,21.92
2023-04-18T08:42:53.012Z,21.10
2023-04-18T08:45:21.074Z,19.75
2023-04-18T08:47:48.189Z,20.98
2023-04-18T08:50:15.324Z,20.13
2023-04-18T08:52:48.262Z,16.63
2023-04-18T08:55:16.330Z,20.77
2023-04-18T08:57:44.292Z,20.25
2023-04-18T09:00:11.984Z,17.27
2023-04-18T09:02:45.208Z,18.33
2023-04-18T09:05:22.854Z,19.40
2023-04-18T09:07:51.878Z,19.33
2023-04-18T09:10:36.755Z,17.40
2023-04-18T09:13:04.469Z,23.38
2023-04-18T09:15:31.716Z,20.55
2023-04-18T09:18:02.560Z,18.15
2023-04-18T09:20:41.493Z,19.58
2023-04-18T09:23:14.903Z,19.40
2023-04-18T09:25:44.477Z,19.83
2023-04-18T09:28:25.138Z,19.95
2023-04-18T09:30:52.872Z,17.42
2023-04-18T09:33:33.753Z,18.65
2023-04-18T09:36:23.509Z,19.27
2023-04-18T09:38:56.045Z,18.55
2023-04-18T09:41:23.841Z,18.50
2023-04-18T09:44:07.833Z,18.70
2023-04-18T09:46:34.875Z,16.42
2023-04-18T09:49:02.355Z,18.65
2023-04-18T09:51:33.896Z,17.88
2023-04-18T09:54:01.873Z,19.45
2023-04-18T09:56:32.070Z,17.08
2023-04-18T09:59:41.762Z,17.33
2023-04-18T10:02:21.145Z,16.90
2023-04-18T10:04:53.765Z,18.30
2023-04-18T10:07:21.179Z,17.75
2023-04-18T10:09:49.530Z,20.20
2023-04-18T10:12:18.661Z,17.90
2023-04-18T10:14:46.005Z,19.83
2023-04-18T10:17:14.994Z,20.30
2023-04-18T10:19:44.421Z,18.35
2023-04-18T10:22:12.475Z,19.08
2023-04-18T10:24:50.320Z,21.13
2023-04-18T10:27:18.439Z,19.38
2023-04-18T10:29:54.859Z,20.35
2023-04-18T10:32:24.747Z,18.63
2023-04-18T10:34:53.648Z,17.77
2023-04-18T10:37:20.694Z,17.63
2023-04-18T10:39:58.693Z,17.83
2023-04-18T10:42:47.401Z,18.27
2023-04-18T10:45:24.951Z,16.70
2023-04-18T10:48:30.399Z,18.23
2023-04-18T10:51:18.011Z,18.80
2023-04-18T10:53:57.786Z,16.83
2023-04-18T10:56:26.250Z,16.52
2023-04-18T10:58:54.009Z,21.58
2023-04-18T11:01:32.146Z,16.30
2023-04-18T11:04:00.509Z,16.20
2023-04-18T11:06:28.043Z,17.33
2023-04-18T11:09:14.759Z,18.50
2023-04-18T11:11:42.606Z,20.75
2023-04-18T11:14:10.207Z,18.02
2023-04-18T11:16:37.350Z,16.70
2023-04-18T11:19:25.989Z,20.58
2023-04-18T11:21:53.163Z,16.60
2023-04-18T11:24:24.542Z,18.98
2023-04-18T11:26:56.184Z,16.27
2023-04-18T11:29:23.491Z,17.33
2023-04-18T11:31:56.883Z,18.20
2023-04-18T11:34:30.925Z,16.10
2023-04-18T11:36:58.859Z,15.82
2023-04-18T11:39:26.059Z,16.92
2023-04-18T11:41:53.458Z,19.83
2023-04-18T11:44:24.978Z,15.45
2023-04-18T11:46:55.369Z,15.23
2023-04-18T11:49:30.557Z,13.98
2023-04-18T11:51:58.143Z,14.18
2023-04-18T11:54:42.661Z,14.07
2023-04-18T11:57:20.653Z,17.20
2023-04-18T11:59:52.611Z,14.00
2023-04-18T12:02:21.334Z,16.90
2023-04-18T12:04:52.204Z,15.52
2023-04-18T12:07:41.005Z,14.65
2023-04-18T12:10:20.244Z,14.32
2023-04-18T12:12:52.160Z,15.77
2023-04-18T12:15:19.639Z,13.02
2023-04-18T12:17:53.820Z,15.38
2023-04-18T12:20:24.893Z,14.32
2023-04-18T12:22:53.222Z,14.60
2023-04-18T12:25:27.287Z,15.20
2023-04-18T12:27:59.086Z,13.88
2023-04-18T12:30:31.962Z,12.40
2023-04-18T12:33:01.434Z,12.43
2023-04-18T12:35:30.269Z,13.50
2023-04-18T12:37:59.388Z,11.60
2023-04-18T12:40:27.148Z,14.20
2023-04-18T12:42:54.912Z,13.07
2023-04-18T12:45:23.567Z,12.38
2023-04-18T12:47:52.244Z,12.45
2023-04-18T12:50:24.458Z,11.32
2023-04-18T12:52:56.071Z,13.68
2023-04-18T12:55:23.222Z,15.35
2023-04-18T12:57:54.475Z,12.00
2023-04-18T13:00:23.720Z,12.70
2023-04-18T13:02:52.608Z,11.73
2023-04-18T13:05:21.751Z,12.13
2023-04-18T13:07:49.915Z,11.93
2023-04-18T13:10:19.778Z,13.27
2023-04-18T13:12:47.370Z,11.27
2023-04-18T13:15:15.945Z,12.85
2023-04-18T13:17:43.860Z,12.02
2023-04-18T13:20:13.014Z,13.30
2023-04-18T13:22:41.355Z,11.98
2023-04-18T13:25:10.814Z,10.23
2023-04-18T13:27:41.445Z,13.85
2023-04-18T13:30:11.124Z,12.77
2023-04-18T13:32:39.369Z,12.20
2023-04-18T13:35:09.278Z,13.30
2023-04-18T13:37:36.858Z,14.60
2023-04-18T13:40:06.624Z,15.40
2023-04-18T13:42:34.632Z,15.88
2023-04-18T13:45:01.766Z,13.75
2023-04-18T13:47:30.079Z,13.90
2023-04-18T13:49:58.009Z,12.55
2023-04-18T13:52:26.155Z,11.98
2023-04-18T13:54:53.343Z,11.50
2023-04-18T13:57:20.464Z,12.15
2023-04-18T13:59:47.543Z,14.43
2023-04-18T14:02:14.995Z,14.18
2023-04-18T14:04:42.311Z,12.20
2023-04-18T14:07:09.727Z,13.05
2023-04-18T14:09:36.739Z,17.27
2023-04-18T14:12:03.963Z,15.60
2023-04-18T14:14:31.013Z,13.30
2023-04-18T14:16:58.137Z,12.32
2023-04-18T14:19:26.821Z,12.80
2023-04-18T14:21:53.780Z,13.55
2023-04-18T14:24:20.875Z,12.18
2023-04-18T14:26:48.196Z,14.07
2023-04-18T14:29:15.576Z,14.65
2023-04-18T14:31:42.909Z,13.23
2023-04-18T14:34:10.032Z,13.10
2023-04-18T14:36:37.132Z,12.63
2023-04-18T14:39:04.840Z,14.20
2023-04-18T14:41:32.008Z,15.13
2023-04-18T14:43:59.556Z,14.68
2023-04-18T14:46:28.399Z,16.08
2023-04-18T14:48:55.504Z,15.73
2023-04-18T14:51:23.322Z,15.73
2023-04-18T14:53:50.508Z,14.27
2023-04-18T14:56:21.153Z,14.90
2023-04-18T14:58:48.687Z,14.10
2023-04-18T15:01:17.629Z,14.50
2023-04-18T15:03:45.512Z,18.58
2023-04-18T15:06:12.801Z,14.00
2023-04-18T15:08:39.848Z,14.55
2023-04-18T15:11:08.274Z,10.88
2023-04-18T15:13:35.716Z,15.43
2023-04-18T15:16:03.183Z,12.95
2023-04-18T15:18:30.324Z,13.77
2023-04-18T15:21:00.201Z,13.13
2023-04-18T15:23:28.459Z,12.07
2023-04-18T15:25:55.455Z,13.65
2023-04-18T15:28:23.096Z,11.85
2023-04-18T15:30:50.104Z,13.38
2023-04-18T15:33:19.170Z,13.18
2023-04-18T15:35:47.738Z,13.57
2023-04-18T15:38:14.853Z,12.90
2023-04-18T15:40:43.622Z,14.30
2023-04-18T15:43:10.727Z,13.73
2023-04-18T15:45:37.734Z,12.73
2023-04-18T15:48:04.950Z,14.68
2023-04-18T15:50:33.589Z,13.00
2023-04-18T15:53:00.893Z,14.30
2023-04-18T15:55:27.986Z,14.50
2023-04-18T15:57:55.212Z,14.75
2023-04-18T16:00:23.399Z,14.55
2023-04-18T16:02:50.880Z,14.50
2023-04-18T16:05:18.457Z,14.95
2023-04-18T16:07:45.513Z,15.07
2023-04-18T16:10:12.993Z,15.43
2023-04-18T16:12:40.429Z,12.63
2023-04-18T16:15:09.610Z,14.20
2023-04-18T16:17:38.050Z,15.90
2023-04-18T16:20:09.289Z,16.48
2023-04-18T16:22:37.143Z,14.45
2023-04-18T16:25:04.988Z,17.40
2023-04-18T16:27:33.194Z,16.13
2023-04-18T16:30:00.432Z,15.60
2023-04-18T16:32:27.493Z,18.02
2023-04-18T16:34:54.551Z,16.45
2023-04-18T16:37:21.576Z,14.95
2023-04-18T16:39:48.642Z,15.27
2023-04-18T16:42:16.093Z,22.90
2023-04-18T16:44:44.869Z,22.25
2023-04-18T16:47:11.942Z,15.85
2023-04-18T16:49:39.068Z,15.80
2023-04-18T16:52:06.089Z,15.70
2023-04-18T16:54:33.096Z,16.20
2023-04-18T16:57:00.106Z,14.13
2023-04-18T16:59:27.327Z,16.98
2023-04-18T17:01:54.363Z,14.80
2023-04-18T17:04:22.113Z,17.63
2023-04-18T17:06:51.878Z,28.17
2023-04-18T17:09:19.967Z,14.88
2023-04-18T17:11:47.187Z,15.23
2023-04-18T17:14:14.724Z,16.52
2023-04-18T17:16:42.803Z,15.48
2023-04-18T17:19:10.561Z,16.95
2023-04-18T17:21:38.026Z,15.98
2023-04-18T17:24:07.121Z,14.82
2023-04-18T17:26:35.564Z,15.55
2023-04-18T17:29:04.396Z,17.48
2023-04-18T17:31:32.390Z,17.38
2023-04-18T17:33:59.918Z,17.48
2023-04-18T17:36:27.349Z,17.70
2023-04-18T17:38:54.519Z,16.17
2023-04-18T17:41:22.094Z,16.50
2023-04-18T17:43:53.634Z,15.75
2023-04-18T17:46:20.721Z,17.55
2023-04-18T17:48:47.770Z,18.02
2023-04-18T17:51:16.600Z,17.25
2023-04-18T17:53:43.792Z,18.60
2023-04-18T17:56:11.021Z,17.77
2023-04-18T17:58:37.998Z,17.58
2023-04-18T18:01:14.747Z,17.63
2023-04-18T18:03:43.940Z,17.95
2023-04-18T18:06:14.889Z,15.07
2023-04-18T18:08:43.403Z,16.45
2023-04-18T18:11:10.853Z,20.10
2023-04-18T18:13:41.410Z,22.05
2023-04-18T18:18:36.996Z,16.80
2023-04-18T18:21:04.092Z,18.98
2023-04-18T18:23:31.243Z,16.83
2023-04-18T18:25:58.761Z,16.08
2023-04-18T18:28:25.821Z,15.07
2023-04-18T18:30:53.818Z,16.50
2023-04-18T18:33:20.891Z,18.23
2023-04-18T18:35:48.168Z,16.55
2023-04-18T18:38:15.265Z,19.08
2023-04-18T18:40:42.253Z,19.05
2023-04-18T18:43:09.264Z,16.08
2023-04-18T18:45:36.264Z,16.60
2023-04-18T18:48:04.193Z,14.10
2023-04-18T18:50:31.241Z,15.68
2023-04-18T18:52:58.338Z,14.65
2023-04-18T18:55:25.362Z,17.27
2023-04-18T18:57:52.291Z,13.88
2023-04-18T19:00:19.598Z,13.93
2023-04-18T19:02:46.824Z,13.77
2023-04-18T19:05:14.210Z,13.80
2023-04-18T19:07:42.549Z,15.80
2023-04-18T19:10:10.847Z,14.98
2023-04-18T19:12:38.561Z,14.25
2023-04-18T19:15:06.534Z,15.85
2023-04-18T19:17:33.636Z,16.75
2023-04-18T19:20:01.715Z,15.88
2023-04-18T19:22:29.631Z,13.60
2023-04-18T19:24:57.418Z,14.52
2023-04-18T19:27:24.482Z,17.42
2023-04-18T19:29:51.540Z,18.88
2023-04-18T19:32:18.577Z,32.55
2023-04-18T19:34:45.779Z,14.02
2023-04-18T19:37:12.921Z,19.27
2023-04-18T19:39:39.882Z,20.63
2023-04-18T19:42:07.614Z,25.35
2023-04-18T19:44:35.001Z,12.95
2023-04-18T19:47:02.077Z,21.10
2023-04-18T19:49:29.080Z,14.73
2023-04-18T19:51:56.124Z,16.30
2023-04-18T19:54:23.171Z,12.80
2023-04-18T19:56:50.516Z,12.40
2023-04-18T19:59:17.568Z,13.27
2023-04-18T20:01:44.721Z,10.32
2023-04-18T20:04:12.040Z,13.73
2023-04-18T20:06:39.218Z,12.60
2023-04-18T20:09:06.481Z,11.95
2023-04-18T20:11:33.763Z,11.63
2023-04-18T20:14:01.180Z,11.77
2023-04-18T20:16:28.249Z,11.85
2023-04-18T20:18:55.273Z,9.93
2023-04-18T20:21:22.341Z,13.32
2023-04-18T20:23:49.340Z,11.95
2023-04-18T20:26:16.339Z,12.18
2023-04-18T20:28:43.297Z,11.10
2023-04-18T20:31:12.030Z,12.73
2023-04-18T20:33:39.017Z,12.25
2023-04-18T20:36:06.757Z,11.43
2023-04-18T20:38:34.086Z,9.50
2023-04-18T20:41:01.177Z,9.07
2023-04-18T20:43:28.844Z,10.00
2023-04-18T20:45:57.963Z,10.90
2023-04-18T20:48:25.107Z,10.88
2023-04-18T20:50:52.229Z,10.77
2023-04-18T20:53:21.199Z,13.18
2023-04-18T20:55:49.005Z,10.82
2023-04-18T20:58:16.297Z,11.07
2023-04-18T21:00:44.754Z,10.98
2023-04-18T21:03:15.729Z,8.65
2023-04-18T21:05:43.902Z,9.77
2023-04-18T21:08:13.585Z,8.25
2023-04-18T21:10:40.640Z,8.70
2023-04-18T21:13:09.376Z,10.52
2023-04-18T21:15:36.485Z,10.27
2023-04-18T21:18:03.674Z,9.63
2023-04-18T21:20:30.868Z,5.68
2023-04-18T21:22:57.905Z,6.47
2023-04-18T21:25:24.935Z,8.60
2023-04-18T21:27:52.018Z,8.27
2023-04-18T21:30:19.162Z,6.43
2023-04-18T21:32:47.458Z,8.25
2023-04-18T21:35:15.633Z,8.40
2023-04-18T21:37:43.498Z,6.53
2023-04-18T21:40:10.931Z,7.57
2023-04-18T21:42:38.072Z,9.57
2023-04-18T21:45:06.448Z,6.47
2023-04-18T21:47:33.500Z,7.88
2023-04-18T21:50:00.465Z,8.02
2023-04-18T21:52:27.417Z,9.15
2023-04-18T21:54:54.468Z,7.60
2023-04-18T21:57:21.423Z,9.75
2023-04-18T21:59:48.407Z,7.00
2023-04-18T22:02:15.662Z,7.03
2023-04-18T22:04:42.949Z,5.78
2023-04-18T22:07:11.515Z,5.68
2023-04-18T22:09:38.744Z,7.82
2023-04-18T22:12:05.893Z,7.07
2023-04-18T22:14:32.908Z,7.53
2023-04-18T22:17:03.430Z,7.47
2023-04-18T22:19:31.524Z,6.40
2023-04-18T22:21:58.935Z,7.00
2023-04-18T22:24:26.244Z,8.13
2023-04-18T22:26:53.624Z,7.13
2023-04-18T22:29:20.596Z,6.18
2023-04-18T22:31:47.673Z,6.15
2023-04-18T22:34:14.912Z,6.88
2023-04-18T22:36:43.956Z,6.18
2023-04-18T22:39:12.282Z,9.52
2023-04-18T22:41:39.271Z,6.30
2023-04-18T22:44:06.298Z,5.45
2023-04-18T22:46:33.472Z,6.93
2023-04-18T22:49:00.759Z,5.25
2023-04-18T22:51:28.853Z,6.25
2023-04-18T22:53:56.488Z,7.75
2023-04-18T22:56:23.626Z,4.85
2023-04-18T22:58:50.733Z,5.05
2023-04-18T23:01:18.095Z,5.93
2023-04-18T23:03:45.244Z,5.35
2023-04-18T23:06:12.447Z,6.55
2023-04-18T23:08:39.487Z,5.03
2023-04-18T23:11:06.506Z,5.15
2023-04-18T23:13:33.477Z,5.03
2023-04-18T23:16:00.536Z,6.65
2023-04-18T23:18:30.213Z,5.65
2023-04-18T23:20:57.239Z,5.65
2023-04-18T23:23:24.235Z,7.95
2023-04-18T23:25:51.224Z,5.40
2023-04-18T23:28:18.733Z,5.18
2023-04-18T23:30:46.432Z,9.18
2023-04-18T23:33:14.033Z,7.10
2023-04-18T23:35:41.215Z,7.47
2023-04-18T23:38:08.858Z,8.38
2023-04-18T23:40:36.227Z,8.40
2023-04-18T23:43:03.530Z,8.75
2023-04-18T23:45:31.259Z,6.32
2023-04-18T23:47:58.475Z,7.40
2023-04-18T23:50:25.945Z,6.43
2023-04-18T23:52:53.146Z,8.57
2023-04-18T23:55:20.515Z,8.82
2023-04-18T23:57:47.764Z,9.32
